Overview Statistics Trail Chart Weather Telemetry Raw packets
 

This is the latest recevied weather packets stored in our database for station/object KI6SYE. If no packets are shown the sender has not sent any weather packets the latest 10 day(s).

<< 79 80 81 82 83 84 85 >>
Time Temp. Humidity Pressure Rain* Wind** Luminosity Snow
1788106127 25° C 75% 1012.2 hPa 0 mm - 352 W/m² -
1788105822 25° C 75% 1012.1 hPa 0 mm - 336 W/m² -
1788105213 25° C 72% 1012.1 hPa 0 mm - 285 W/m² -
1788104913 25° C 72% 1011.7 hPa 0 mm - 285 W/m² -
1788104609 25.56° C 72% 1012 hPa 0 mm - 276 W/m² -
1788104306 26.11° C 71% 1012 hPa 0 mm - 263 W/m² -
1788104001 25.56° C 74% 1012 hPa 0 mm - 243 W/m² -
1788103699 25° C 75% 1012.1 hPa 0 mm - 226 W/m² -
1788103395 24.44° C 77% 1012 hPa 0 mm - 208 W/m² -
1788103090 23.89° C 79% 1011.9 hPa 0 mm - 191 W/m² -
1788102789 24.44° C 78% 1012.1 hPa 0 mm - 177 W/m² -
1788102484 23.89° C 79% 1012.1 hPa 0 mm - 159 W/m² -
1788102183 23.33° C 80% 1012 hPa 0 mm - 148 W/m² -
1788101883 23.33° C 81% 1012 hPa 0 mm - 135 W/m² -
1788101578 23.33° C 80% 1012.3 hPa 0 mm - 122 W/m² -
1788101273 23.33° C 81% 1012.1 hPa 0 mm - 53 W/m² -
1788100969 23.89° C 79% 1012.1 hPa 0 mm - 99 W/m² -
1788100665 23.33° C 81% 1012.1 hPa 0 mm - 87 W/m² -
1788100364 22.78° C 84% 1011.9 hPa 0 mm - 78 W/m² -
1788100053 22.22° C 86% 1011.9 hPa 0 mm - 67 W/m² -
1788099748 22.78° C 86% 1011.7 hPa 0 mm - 61 W/m² -
1788099438 21.67° C 87% 1011.7 hPa 0 mm - 51 W/m² -
1788099133 21.11° C 88% 1011.8 hPa 0 mm - 42 W/m² -
1788098833 21.11° C 89% 1011.7 hPa 0 mm - 37 W/m² -
1788098528 21.11° C 89% 1011.6 hPa 0 mm - 31 W/m² -

* Rain latest hour (hover to see other rain measurements)
** Current wind speed in m/s (hover to see current wind gust speed)